sensor_id;sensor_type;location;lat;lon;timestamp;temperature;humidity
14739;DHT22;7461;52.440;13.540;2023-05-20T00:00:29;11.50;99.90
14739;DHT22;7461;52.440;13.540;2023-05-20T00:02:55;11.50;99.90
14739;DHT22;7461;52.440;13.540;2023-05-20T00:05:24;11.40;99.90
14739;DHT22;7461;52.440;13.540;2023-05-20T00:07:52;11.50;99.90
14739;DHT22;7461;52.440;13.540;2023-05-20T00:10:19;11.40;99.90
14739;DHT22;7461;52.440;13.540;2023-05-20T00:12:46;11.40;99.90
14739;DHT22;7461;52.440;13.540;2023-05-20T00:15:13;11.30;99.90
14739;DHT22;7461;52.440;13.540;2023-05-20T00:17:40;11.30;99.90
14739;DHT22;7461;52.440;13.540;2023-05-20T00:20:08;11.30;99.90
14739;DHT22;7461;52.440;13.540;2023-05-20T00:22:35;11.30;99.90
14739;DHT22;7461;52.440;13.540;2023-05-20T00:25:04;11.30;99.90
14739;DHT22;7461;52.440;13.540;2023-05-20T00:27:31;11.20;99.90
14739;DHT22;7461;52.440;13.540;2023-05-20T00:29:58;11.20;99.90
14739;DHT22;7461;52.440;13.540;2023-05-20T00:32:25;11.20;99.90
14739;DHT22;7461;52.440;13.540;2023-05-20T00:34:55;11.20;99.90
14739;DHT22;7461;52.440;13.540;2023-05-20T00:37:23;11.20;99.90
14739;DHT22;7461;52.440;13.540;2023-05-20T00:39:50;11.10;99.90
14739;DHT22;7461;52.440;13.540;2023-05-20T00:42:21;11.10;99.90
14739;DHT22;7461;52.440;13.540;2023-05-20T00:44:49;11.10;99.90
14739;DHT22;7461;52.440;13.540;2023-05-20T00:47:17;11.10;99.90
14739;DHT22;7461;52.440;13.540;2023-05-20T00:49:46;11.10;99.90
14739;DHT22;7461;52.440;13.540;2023-05-20T00:52:14;11.10;99.90
14739;DHT22;7461;52.440;13.540;2023-05-20T00:54:42;11.10;99.90
14739;DHT22;7461;52.440;13.540;2023-05-20T00:57:09;11.00;99.90
14739;DHT22;7461;52.440;13.540;2023-05-20T00:59:38;11.00;99.90
14739;DHT22;7461;52.440;13.540;2023-05-20T01:02:05;11.00;99.90
14739;DHT22;7461;52.440;13.540;2023-05-20T01:04:33;11.00;99.90
14739;DHT22;7461;52.440;13.540;2023-05-20T01:07:02;11.00;99.90
14739;DHT22;7461;52.440;13.540;2023-05-20T01:09:30;10.90;99.90
14739;DHT22;7461;52.440;13.540;2023-05-20T01:12:02;10.90;99.90
14739;DHT22;7461;52.440;13.540;2023-05-20T01:14:35;10.90;99.90
14739;DHT22;7461;52.440;13.540;2023-05-20T01:17:05;10.90;99.90
14739;DHT22;7461;52.440;13.540;2023-05-20T01:19:41;10.90;99.90
14739;DHT22;7461;52.440;13.540;2023-05-20T01:22:10;10.80;99.90
14739;DHT22;7461;52.440;13.540;2023-05-20T01:24:40;10.80;99.90
14739;DHT22;7461;52.440;13.540;2023-05-20T01:27:08;10.80;99.90
14739;DHT22;7461;52.440;13.540;2023-05-20T01:29:36;10.80;99.90
14739;DHT22;7461;52.440;13.540;2023-05-20T01:32:05;10.70;99.90
14739;DHT22;7461;52.440;13.540;2023-05-20T01:34:34;10.70;99.90
14739;DHT22;7461;52.440;13.540;2023-05-20T01:37:02;10.80;99.90
14739;DHT22;7461;52.440;13.540;2023-05-20T01:39:30;10.80;99.90
14739;DHT22;7461;52.440;13.540;2023-05-20T01:41:59;10.80;99.90
14739;DHT22;7461;52.440;13.540;2023-05-20T01:44:27;10.80;99.90
14739;DHT22;7461;52.440;13.540;2023-05-20T01:46:54;10.80;99.90
14739;DHT22;7461;52.440;13.540;2023-05-20T01:49:21;10.80;99.90
14739;DHT22;7461;52.440;13.540;2023-05-20T01:51:48;10.80;99.90
14739;DHT22;7461;52.440;13.540;2023-05-20T01:54:15;10.80;99.90
14739;DHT22;7461;52.440;13.540;2023-05-20T01:56:42;10.70;99.90
14739;DHT22;7461;52.440;13.540;2023-05-20T01:59:10;10.70;99.90
14739;DHT22;7461;52.440;13.540;2023-05-20T02:01:37;10.70;99.90
14739;DHT22;7461;52.440;13.540;2023-05-20T02:04:04;10.70;99.90
14739;DHT22;7461;52.440;13.540;2023-05-20T02:06:31;10.70;99.90
14739;DHT22;7461;52.440;13.540;2023-05-20T02:08:58;10.70;99.90
14739;DHT22;7461;52.440;13.540;2023-05-20T02:11:25;10.60;99.90
14739;DHT22;7461;52.440;13.540;2023-05-20T02:13:52;10.70;99.90
14739;DHT22;7461;52.440;13.540;2023-05-20T02:16:20;10.70;99.90
14739;DHT22;7461;52.440;13.540;2023-05-20T02:18:47;10.70;99.90
14739;DHT22;7461;52.440;13.540;2023-05-20T02:21:16;10.70;99.90
14739;DHT22;7461;52.440;13.540;2023-05-20T02:23:42;10.70;99.90
14739;DHT22;7461;52.440;13.540;2023-05-20T02:26:09;10.80;99.90
14739;DHT22;7461;52.440;13.540;2023-05-20T02:28:36;10.80;99.90
14739;DHT22;7461;52.440;13.540;2023-05-20T02:31:05;10.80;99.90
14739;DHT22;7461;52.440;13.540;2023-05-20T02:33:33;10.80;99.90
14739;DHT22;7461;52.440;13.540;2023-05-20T02:36:00;10.80;99.90
14739;DHT22;7461;52.440;13.540;2023-05-20T02:38:27;10.80;99.90
14739;DHT22;7461;52.440;13.540;2023-05-20T02:40:56;10.80;99.90
14739;DHT22;7461;52.440;13.540;2023-05-20T02:43:24;10.90;99.90
14739;DHT22;7461;52.440;13.540;2023-05-20T02:45:51;10.80;99.90
14739;DHT22;7461;52.440;13.540;2023-05-20T02:48:18;10.80;99.90
14739;DHT22;7461;52.440;13.540;2023-05-20T02:50:46;10.90;99.90
14739;DHT22;7461;52.440;13.540;2023-05-20T02:53:13;10.90;99.90
14739;DHT22;7461;52.440;13.540;2023-05-20T02:55:40;10.90;99.90
14739;DHT22;7461;52.440;13.540;2023-05-20T02:58:09;10.90;99.90
14739;DHT22;7461;52.440;13.540;2023-05-20T03:00:38;11.00;99.90
14739;DHT22;7461;52.440;13.540;2023-05-20T03:03:05;11.00;99.90
14739;DHT22;7461;52.440;13.540;2023-05-20T03:05:32;11.00;99.90
14739;DHT22;7461;52.440;13.540;2023-05-20T03:08:05;11.00;99.90
14739;DHT22;7461;52.440;13.540;2023-05-20T03:10:34;11.10;99.90
14739;DHT22;7461;52.440;13.540;2023-05-20T03:13:00;11.00;99.90
14739;DHT22;7461;52.440;13.540;2023-05-20T03:15:27;11.10;99.90
14739;DHT22;7461;52.440;13.540;2023-05-20T03:17:55;11.10;99.90
14739;DHT22;7461;52.440;13.540;2023-05-20T03:20:22;11.10;99.90
14739;DHT22;7461;52.440;13.540;2023-05-20T03:22:50;11.10;99.90
14739;DHT22;7461;52.440;13.540;2023-05-20T03:25:18;11.10;99.90
14739;DHT22;7461;52.440;13.540;2023-05-20T03:27:45;11.20;99.90
14739;DHT22;7461;52.440;13.540;2023-05-20T03:30:12;11.20;99.90
14739;DHT22;7461;52.440;13.540;2023-05-20T03:32:39;11.20;99.90
14739;DHT22;7461;52.440;13.540;2023-05-20T03:35:07;11.20;99.90
14739;DHT22;7461;52.440;13.540;2023-05-20T03:37:34;11.20;99.90
14739;DHT22;7461;52.440;13.540;2023-05-20T03:40:01;11.20;99.90
14739;DHT22;7461;52.440;13.540;2023-05-20T03:42:32;11.30;99.90
14739;DHT22;7461;52.440;13.540;2023-05-20T03:44:59;11.30;99.90
14739;DHT22;7461;52.440;13.540;2023-05-20T03:47:26;11.30;99.90
14739;DHT22;7461;52.440;13.540;2023-05-20T03:49:53;11.20;99.90
14739;DHT22;7461;52.440;13.540;2023-05-20T03:52:20;11.30;99.90
14739;DHT22;7461;52.440;13.540;2023-05-20T03:54:47;11.20;99.90
14739;DHT22;7461;52.440;13.540;2023-05-20T03:57:14;11.30;99.90
14739;DHT22;7461;52.440;13.540;2023-05-20T03:59:42;11.30;99.90
14739;DHT22;7461;52.440;13.540;2023-05-20T04:02:09;11.30;99.90
14739;DHT22;7461;52.440;13.540;2023-05-20T04:04:36;11.30;99.90
14739;DHT22;7461;52.440;13.540;2023-05-20T04:07:04;11.30;99.90
14739;DHT22;7461;52.440;13.540;2023-05-20T04:09:32;11.30;99.90
14739;DHT22;7461;52.440;13.540;2023-05-20T04:11:59;11.30;99.90
14739;DHT22;7461;52.440;13.540;2023-05-20T04:14:26;11.30;99.90
14739;DHT22;7461;52.440;13.540;2023-05-20T04:16:54;11.30;99.90
14739;DHT22;7461;52.440;13.540;2023-05-20T04:19:21;11.30;99.90
14739;DHT22;7461;52.440;13.540;2023-05-20T04:21:52;11.30;99.90
14739;DHT22;7461;52.440;13.540;2023-05-20T04:24:19;11.30;99.90
14739;DHT22;7461;52.440;13.540;2023-05-20T04:26:49;11.40;99.90
14739;DHT22;7461;52.440;13.540;2023-05-20T04:29:16;11.40;99.90
14739;DHT22;7461;52.440;13.540;2023-05-20T04:31:44;11.40;99.90
14739;DHT22;7461;52.440;13.540;2023-05-20T04:34:13;11.40;99.90
14739;DHT22;7461;52.440;13.540;2023-05-20T04:36:44;11.50;99.90
14739;DHT22;7461;52.440;13.540;2023-05-20T04:39:11;11.50;99.90
14739;DHT22;7461;52.440;13.540;2023-05-20T04:41:40;11.50;99.90
14739;DHT22;7461;52.440;13.540;2023-05-20T04:44:07;11.50;99.90
14739;DHT22;7461;52.440;13.540;2023-05-20T04:46:34;11.50;99.90
14739;DHT22;7461;52.440;13.540;2023-05-20T04:49:00;11.50;99.90
14739;DHT22;7461;52.440;13.540;2023-05-20T04:51:30;11.50;99.90
14739;DHT22;7461;52.440;13.540;2023-05-20T04:53:57;11.50;99.90
14739;DHT22;7461;52.440;13.540;2023-05-20T04:56:24;11.50;99.90
14739;DHT22;7461;52.440;13.540;2023-05-20T04:58:51;11.50;99.90
14739;DHT22;7461;52.440;13.540;2023-05-20T05:01:18;11.50;99.90
14739;DHT22;7461;52.440;13.540;2023-05-20T05:03:45;11.50;99.90
14739;DHT22;7461;52.440;13.540;2023-05-20T05:06:12;11.50;99.90
14739;DHT22;7461;52.440;13.540;2023-05-20T05:08:40;11.50;99.90
14739;DHT22;7461;52.440;13.540;2023-05-20T05:11:07;11.60;99.90
14739;DHT22;7461;52.440;13.540;2023-05-20T05:13:34;11.50;99.90
14739;DHT22;7461;52.440;13.540;2023-05-20T05:16:02;11.60;99.90
14739;DHT22;7461;52.440;13.540;2023-05-20T05:18:29;11.50;99.90
14739;DHT22;7461;52.440;13.540;2023-05-20T05:21:03;11.60;99.90
14739;DHT22;7461;52.440;13.540;2023-05-20T05:23:30;11.60;99.90
14739;DHT22;7461;52.440;13.540;2023-05-20T05:25:58;11.60;99.90
14739;DHT22;7461;52.440;13.540;2023-05-20T05:28:25;11.60;99.90
14739;DHT22;7461;52.440;13.540;2023-05-20T05:30:53;11.60;99.90
14739;DHT22;7461;52.440;13.540;2023-05-20T05:33:21;11.60;99.90
14739;DHT22;7461;52.440;13.540;2023-05-20T05:35:48;11.70;99.90
14739;DHT22;7461;52.440;13.540;2023-05-20T05:38:15;11.70;99.90
14739;DHT22;7461;52.440;13.540;2023-05-20T05:40:42;11.70;99.90
14739;DHT22;7461;52.440;13.540;2023-05-20T05:43:10;11.70;99.90
14739;DHT22;7461;52.440;13.540;2023-05-20T05:45:38;11.70;99.90
14739;DHT22;7461;52.440;13.540;2023-05-20T05:48:04;11.70;99.90
14739;DHT22;7461;52.440;13.540;2023-05-20T05:50:31;11.70;99.90
14739;DHT22;7461;52.440;13.540;2023-05-20T05:52:58;11.70;99.90
14739;DHT22;7461;52.440;13.540;2023-05-20T05:55:25;11.70;99.90
14739;DHT22;7461;52.440;13.540;2023-05-20T05:57:52;11.70;99.90
14739;DHT22;7461;52.440;13.540;2023-05-20T06:00:20;11.80;99.90
14739;DHT22;7461;52.440;13.540;2023-05-20T06:02:47;11.90;99.90
14739;DHT22;7461;52.440;13.540;2023-05-20T06:05:14;11.90;99.90
14739;DHT22;7461;52.440;13.540;2023-05-20T06:07:41;11.90;99.90
14739;DHT22;7461;52.440;13.540;2023-05-20T06:10:09;12.00;99.90
14739;DHT22;7461;52.440;13.540;2023-05-20T06:12:36;12.00;99.90
14739;DHT22;7461;52.440;13.540;2023-05-20T06:15:03;12.00;99.90
14739;DHT22;7461;52.440;13.540;2023-05-20T06:17:32;12.00;99.90
14739;DHT22;7461;52.440;13.540;2023-05-20T06:19:59;12.10;99.90
14739;DHT22;7461;52.440;13.540;2023-05-20T06:22:26;12.10;99.90
14739;DHT22;7461;52.440;13.540;2023-05-20T06:24:55;12.10;99.90
14739;DHT22;7461;52.440;13.540;2023-05-20T06:27:25;12.10;99.90
14739;DHT22;7461;52.440;13.540;2023-05-20T06:29:52;12.10;99.90
14739;DHT22;7461;52.440;13.540;2023-05-20T06:32:19;12.10;99.90
14739;DHT22;7461;52.440;13.540;2023-05-20T06:34:47;12.10;99.90
14739;DHT22;7461;52.440;13.540;2023-05-20T06:37:14;12.20;99.90
14739;DHT22;7461;52.440;13.540;2023-05-20T06:39:41;12.20;99.90
14739;DHT22;7461;52.440;13.540;2023-05-20T06:42:07;12.20;99.90
14739;DHT22;7461;52.440;13.540;2023-05-20T06:44:34;12.30;99.90
14739;DHT22;7461;52.440;13.540;2023-05-20T06:47:01;12.30;99.90
14739;DHT22;7461;52.440;13.540;2023-05-20T06:49:28;12.40;99.90
14739;DHT22;7461;52.440;13.540;2023-05-20T06:51:56;12.30;99.90
14739;DHT22;7461;52.440;13.540;2023-05-20T06:54:23;12.40;99.90
14739;DHT22;7461;52.440;13.540;2023-05-20T06:56:50;12.40;99.90
14739;DHT22;7461;52.440;13.540;2023-05-20T06:59:17;12.50;99.90
14739;DHT22;7461;52.440;13.540;2023-05-20T07:01:44;12.60;99.90
14739;DHT22;7461;52.440;13.540;2023-05-20T07:04:11;12.60;99.90
14739;DHT22;7461;52.440;13.540;2023-05-20T07:06:38;12.70;99.90
14739;DHT22;7461;52.440;13.540;2023-05-20T07:09:06;12.70;99.90
14739;DHT22;7461;52.440;13.540;2023-05-20T07:11:33;12.70;99.90
14739;DHT22;7461;52.440;13.540;2023-05-20T07:14:00;12.70;99.90
14739;DHT22;7461;52.440;13.540;2023-05-20T07:16:27;12.70;99.90
14739;DHT22;7461;52.440;13.540;2023-05-20T07:18:54;12.80;99.90
14739;DHT22;7461;52.440;13.540;2023-05-20T07:21:21;12.80;99.90
14739;DHT22;7461;52.440;13.540;2023-05-20T07:23:47;12.90;99.90
14739;DHT22;7461;52.440;13.540;2023-05-20T07:26:16;12.80;99.90
14739;DHT22;7461;52.440;13.540;2023-05-20T07:28:43;12.90;99.90
14739;DHT22;7461;52.440;13.540;2023-05-20T07:31:10;12.90;99.90
14739;DHT22;7461;52.440;13.540;2023-05-20T07:33:37;13.00;99.90
14739;DHT22;7461;52.440;13.540;2023-05-20T07:36:05;13.00;99.90
14739;DHT22;7461;52.440;13.540;2023-05-20T07:38:31;13.10;99.90
14739;DHT22;7461;52.440;13.540;2023-05-20T07:40:58;13.10;99.90
14739;DHT22;7461;52.440;13.540;2023-05-20T07:43:27;13.30;99.90
14739;DHT22;7461;52.440;13.540;2023-05-20T07:45:54;13.30;99.90
14739;DHT22;7461;52.440;13.540;2023-05-20T07:48:21;13.40;99.90
14739;DHT22;7461;52.440;13.540;2023-05-20T07:50:48;13.50;99.90
14739;DHT22;7461;52.440;13.540;2023-05-20T07:53:15;13.50;99.90
14739;DHT22;7461;52.440;13.540;2023-05-20T07:55:42;13.60;99.90
14739;DHT22;7461;52.440;13.540;2023-05-20T07:58:09;13.60;99.90
14739;DHT22;7461;52.440;13.540;2023-05-20T08:00:37;13.70;99.90
14739;DHT22;7461;52.440;13.540;2023-05-20T08:03:04;13.80;99.90
14739;DHT22;7461;52.440;13.540;2023-05-20T08:05:32;13.90;99.90
14739;DHT22;7461;52.440;13.540;2023-05-20T08:07:59;14.00;99.90
14739;DHT22;7461;52.440;13.540;2023-05-20T08:10:26;14.10;99.90
14739;DHT22;7461;52.440;13.540;2023-05-20T08:12:53;14.10;99.90
14739;DHT22;7461;52.440;13.540;2023-05-20T08:15:20;14.10;99.90
14739;DHT22;7461;52.440;13.540;2023-05-20T08:17:48;14.20;99.90
14739;DHT22;7461;52.440;13.540;2023-05-20T08:20:15;14.20;99.90
14739;DHT22;7461;52.440;13.540;2023-05-20T08:22:43;14.10;99.90
14739;DHT22;7461;52.440;13.540;2023-05-20T08:25:09;14.10;99.90
14739;DHT22;7461;52.440;13.540;2023-05-20T08:27:36;14.10;99.90
14739;DHT22;7461;52.440;13.540;2023-05-20T08:30:04;14.20;99.90
14739;DHT22;7461;52.440;13.540;2023-05-20T08:32:32;14.30;99.90
14739;DHT22;7461;52.440;13.540;2023-05-20T08:35:01;14.30;99.90
14739;DHT22;7461;52.440;13.540;2023-05-20T08:37:28;14.20;99.90
14739;DHT22;7461;52.440;13.540;2023-05-20T08:39:55;14.20;99.90
14739;DHT22;7461;52.440;13.540;2023-05-20T08:42:23;14.30;99.90
14739;DHT22;7461;52.440;13.540;2023-05-20T08:44:51;14.20;99.90
14739;DHT22;7461;52.440;13.540;2023-05-20T08:47:19;14.30;99.90
14739;DHT22;7461;52.440;13.540;2023-05-20T08:49:47;14.30;99.90
14739;DHT22;7461;52.440;13.540;2023-05-20T08:52:17;14.40;99.90
14739;DHT22;7461;52.440;13.540;2023-05-20T08:54:48;14.40;99.90
14739;DHT22;7461;52.440;13.540;2023-05-20T08:57:15;14.50;99.90
14739;DHT22;7461;52.440;13.540;2023-05-20T08:59:45;14.50;99.90
14739;DHT22;7461;52.440;13.540;2023-05-20T09:02:12;14.50;99.90
14739;DHT22;7461;52.440;13.540;2023-05-20T09:04:40;14.50;99.90
14739;DHT22;7461;52.440;13.540;2023-05-20T09:07:07;14.50;99.90
14739;DHT22;7461;52.440;13.540;2023-05-20T09:09:35;14.60;99.90
14739;DHT22;7461;52.440;13.540;2023-05-20T09:12:03;14.60;99.90
14739;DHT22;7461;52.440;13.540;2023-05-20T09:14:30;14.60;99.90
14739;DHT22;7461;52.440;13.540;2023-05-20T09:16:57;14.70;99.90
14739;DHT22;7461;52.440;13.540;2023-05-20T09:19:24;14.70;99.90
14739;DHT22;7461;52.440;13.540;2023-05-20T09:21:52;14.80;99.90
14739;DHT22;7461;52.440;13.540;2023-05-20T09:24:23;14.80;99.90
14739;DHT22;7461;52.440;13.540;2023-05-20T09:26:52;14.90;99.90
14739;DHT22;7461;52.440;13.540;2023-05-20T09:29:19;14.90;99.90
14739;DHT22;7461;52.440;13.540;2023-05-20T09:31:46;15.00;99.90
14739;DHT22;7461;52.440;13.540;2023-05-20T09:34:13;15.10;99.90
14739;DHT22;7461;52.440;13.540;2023-05-20T09:36:43;15.10;99.90
14739;DHT22;7461;52.440;13.540;2023-05-20T09:39:15;15.10;99.90
14739;DHT22;7461;52.440;13.540;2023-05-20T09:41:50;15.10;99.90
14739;DHT22;7461;52.440;13.540;2023-05-20T09:44:21;15.10;99.90
14739;DHT22;7461;52.440;13.540;2023-05-20T09:46:49;15.20;99.90
14739;DHT22;7461;52.440;13.540;2023-05-20T09:49:18;15.20;99.90
14739;DHT22;7461;52.440;13.540;2023-05-20T09:51:47;15.20;99.90
14739;DHT22;7461;52.440;13.540;2023-05-20T09:54:16;15.20;99.90
14739;DHT22;7461;52.440;13.540;2023-05-20T09:56:44;15.20;99.90
14739;DHT22;7461;52.440;13.540;2023-05-20T09:59:14;15.20;99.90
14739;DHT22;7461;52.440;13.540;2023-05-20T10:01:43;15.10;99.90
14739;DHT22;7461;52.440;13.540;2023-05-20T10:04:11;15.10;99.90
14739;DHT22;7461;52.440;13.540;2023-05-20T10:06:59;15.10;99.90
14739;DHT22;7461;52.440;13.540;2023-05-20T10:09:42;15.10;99.90
14739;DHT22;7461;52.440;13.540;2023-05-20T10:12:18;15.20;99.90
14739;DHT22;7461;52.440;13.540;2023-05-20T10:14:55;15.40;99.90
14739;DHT22;7461;52.440;13.540;2023-05-20T10:17:40;15.40;99.90
14739;DHT22;7461;52.440;13.540;2023-05-20T10:20:08;15.50;99.90
14739;DHT22;7461;52.440;13.540;2023-05-20T10:22:37;15.50;99.90
14739;DHT22;7461;52.440;13.540;2023-05-20T10:25:06;15.60;99.90
14739;DHT22;7461;52.440;13.540;2023-05-20T10:27:42;15.70;99.90
14739;DHT22;7461;52.440;13.540;2023-05-20T10:30:14;15.90;99.90
14739;DHT22;7461;52.440;13.540;2023-05-20T10:32:48;16.00;99.90
14739;DHT22;7461;52.440;13.540;2023-05-20T10:35:21;16.00;99.90
14739;DHT22;7461;52.440;13.540;2023-05-20T10:37:48;16.00;99.90
14739;DHT22;7461;52.440;13.540;2023-05-20T10:40:17;15.90;99.90
14739;DHT22;7461;52.440;13.540;2023-05-20T10:42:45;15.90;99.90
14739;DHT22;7461;52.440;13.540;2023-05-20T10:45:24;16.00;99.90
14739;DHT22;7461;52.440;13.540;2023-05-20T10:47:55;16.00;99.90
14739;DHT22;7461;52.440;13.540;2023-05-20T10:50:26;16.00;99.90
14739;DHT22;7461;52.440;13.540;2023-05-20T10:52:55;16.00;99.90
14739;DHT22;7461;52.440;13.540;2023-05-20T10:55:34;16.10;99.90
14739;DHT22;7461;52.440;13.540;2023-05-20T10:58:02;16.10;99.90
14739;DHT22;7461;52.440;13.540;2023-05-20T11:00:29;16.20;99.90
14739;DHT22;7461;52.440;13.540;2023-05-20T11:02:57;16.20;99.90
14739;DHT22;7461;52.440;13.540;2023-05-20T11:05:25;16.20;99.90
14739;DHT22;7461;52.440;13.540;2023-05-20T11:07:59;16.30;99.90
14739;DHT22;7461;52.440;13.540;2023-05-20T11:10:27;16.30;99.90
14739;DHT22;7461;52.440;13.540;2023-05-20T11:12:54;16.50;99.90
14739;DHT22;7461;52.440;13.540;2023-05-20T11:15:22;16.60;99.90
14739;DHT22;7461;52.440;13.540;2023-05-20T11:17:53;16.70;99.90
14739;DHT22;7461;52.440;13.540;2023-05-20T11:20:21;16.60;99.90
14739;DHT22;7461;52.440;13.540;2023-05-20T11:22:49;16.60;99.90
14739;DHT22;7461;52.440;13.540;2023-05-20T11:25:17;16.70;99.90
14739;DHT22;7461;52.440;13.540;2023-05-20T11:27:44;16.90;99.90
14739;DHT22;7461;52.440;13.540;2023-05-20T11:30:13;17.00;99.90
14739;DHT22;7461;52.440;13.540;2023-05-20T11:32:41;16.80;99.90
14739;DHT22;7461;52.440;13.540;2023-05-20T11:35:22;16.80;99.90
14739;DHT22;7461;52.440;13.540;2023-05-20T11:37:54;16.80;99.90
14739;DHT22;7461;52.440;13.540;2023-05-20T11:40:23;16.80;99.90
14739;DHT22;7461;52.440;13.540;2023-05-20T11:42:53;16.80;99.90
14739;DHT22;7461;52.440;13.540;2023-05-20T11:45:20;16.80;99.90
14739;DHT22;7461;52.440;13.540;2023-05-20T11:47:58;16.80;99.90
14739;DHT22;7461;52.440;13.540;2023-05-20T11:50:26;17.10;99.90
14739;DHT22;7461;52.440;13.540;2023-05-20T11:52:57;17.20;99.90
14739;DHT22;7461;52.440;13.540;2023-05-20T11:55:25;17.20;99.90
14739;DHT22;7461;52.440;13.540;2023-05-20T11:57:53;17.30;99.90
14739;DHT22;7461;52.440;13.540;2023-05-20T12:00:21;17.30;99.90
14739;DHT22;7461;52.440;13.540;2023-05-20T12:02:48;17.30;99.90
14739;DHT22;7461;52.440;13.540;2023-05-20T12:05:15;17.40;99.90
14739;DHT22;7461;52.440;13.540;2023-05-20T12:07:43;17.60;99.90
14739;DHT22;7461;52.440;13.540;2023-05-20T12:10:11;17.70;99.90
14739;DHT22;7461;52.440;13.540;2023-05-20T12:12:38;17.80;99.90
14739;DHT22;7461;52.440;13.540;2023-05-20T12:15:06;17.80;99.90
14739;DHT22;7461;52.440;13.540;2023-05-20T12:17:43;18.00;99.90
14739;DHT22;7461;52.440;13.540;2023-05-20T12:20:12;18.10;99.90
14739;DHT22;7461;52.440;13.540;2023-05-20T12:22:40;17.90;99.90
14739;DHT22;7461;52.440;13.540;2023-05-20T12:25:10;17.90;99.90
14739;DHT22;7461;52.440;13.540;2023-05-20T12:27:38;17.80;99.90
14739;DHT22;7461;52.440;13.540;2023-05-20T12:30:06;17.90;99.90
14739;DHT22;7461;52.440;13.540;2023-05-20T12:32:34;17.90;99.90
14739;DHT22;7461;52.440;13.540;2023-05-20T12:35:01;17.90;99.90
14739;DHT22;7461;52.440;13.540;2023-05-20T12:37:28;18.10;99.90
14739;DHT22;7461;52.440;13.540;2023-05-20T12:39:55;18.00;99.90
14739;DHT22;7461;52.440;13.540;2023-05-20T12:42:24;17.90;99.90
14739;DHT22;7461;52.440;13.540;2023-05-20T12:44:51;17.80;99.90
14739;DHT22;7461;52.440;13.540;2023-05-20T12:47:19;17.60;99.90
14739;DHT22;7461;52.440;13.540;2023-05-20T12:49:46;17.70;99.90
14739;DHT22;7461;52.440;13.540;2023-05-20T12:52:13;17.90;99.90
14739;DHT22;7461;52.440;13.540;2023-05-20T12:54:40;18.00;99.90
14739;DHT22;7461;52.440;13.540;2023-05-20T12:57:07;18.20;99.90
14739;DHT22;7461;52.440;13.540;2023-05-20T12:59:35;18.20;99.90
14739;DHT22;7461;52.440;13.540;2023-05-20T13:02:02;18.30;99.90
14739;DHT22;7461;52.440;13.540;2023-05-20T13:04:29;18.40;99.90
14739;DHT22;7461;52.440;13.540;2023-05-20T13:06:56;18.50;99.90
14739;DHT22;7461;52.440;13.540;2023-05-20T13:09:24;18.60;99.90
14739;DHT22;7461;52.440;13.540;2023-05-20T13:11:51;18.60;99.90
14739;DHT22;7461;52.440;13.540;2023-05-20T13:14:18;18.60;99.90
14739;DHT22;7461;52.440;13.540;2023-05-20T13:16:49;18.60;99.90
14739;DHT22;7461;52.440;13.540;2023-05-20T13:19:19;18.80;99.90
14739;DHT22;7461;52.440;13.540;2023-05-20T13:21:46;18.60;99.90
14739;DHT22;7461;52.440;13.540;2023-05-20T13:24:13;18.50;99.90
14739;DHT22;7461;52.440;13.540;2023-05-20T13:26:40;18.20;99.90
14739;DHT22;7461;52.440;13.540;2023-05-20T13:29:08;18.10;99.90
14739;DHT22;7461;52.440;13.540;2023-05-20T13:31:35;18.10;99.90
14739;DHT22;7461;52.440;13.540;2023-05-20T13:34:04;18.20;99.90
14739;DHT22;7461;52.440;13.540;2023-05-20T13:36:31;18.30;99.90
14739;DHT22;7461;52.440;13.540;2023-05-20T13:38:58;18.30;99.90
14739;DHT22;7461;52.440;13.540;2023-05-20T13:41:25;18.40;99.90
14739;DHT22;7461;52.440;13.540;2023-05-20T13:43:52;18.50;99.90
14739;DHT22;7461;52.440;13.540;2023-05-20T13:46:19;18.60;99.90
14739;DHT22;7461;52.440;13.540;2023-05-20T13:48:46;18.70;99.90
14739;DHT22;7461;52.440;13.540;2023-05-20T13:51:15;18.80;99.90
14739;DHT22;7461;52.440;13.540;2023-05-20T13:53:42;18.80;99.90
14739;DHT22;7461;52.440;13.540;2023-05-20T13:56:08;18.80;99.90
14739;DHT22;7461;52.440;13.540;2023-05-20T13:58:36;18.70;99.90
14739;DHT22;7461;52.440;13.540;2023-05-20T14:01:03;18.70;99.90
14739;DHT22;7461;52.440;13.540;2023-05-20T14:03:30;18.70;99.90
14739;DHT22;7461;52.440;13.540;2023-05-20T14:05:58;18.70;99.90
14739;DHT22;7461;52.440;13.540;2023-05-20T14:08:27;18.80;99.90
14739;DHT22;7461;52.440;13.540;2023-05-20T14:10:54;19.00;99.90
14739;DHT22;7461;52.440;13.540;2023-05-20T14:13:21;19.00;99.90
14739;DHT22;7461;52.440;13.540;2023-05-20T14:15:48;19.00;99.90
14739;DHT22;7461;52.440;13.540;2023-05-20T14:18:16;19.00;99.90
14739;DHT22;7461;52.440;13.540;2023-05-20T14:20:43;19.10;99.90
14739;DHT22;7461;52.440;13.540;2023-05-20T14:23:11;19.20;99.90
14739;DHT22;7461;52.440;13.540;2023-05-20T14:25:39;19.20;99.90
14739;DHT22;7461;52.440;13.540;2023-05-20T14:28:06;19.20;99.90
14739;DHT22;7461;52.440;13.540;2023-05-20T14:30:33;19.20;99.90
14739;DHT22;7461;52.440;13.540;2023-05-20T14:33:00;19.20;99.90
14739;DHT22;7461;52.440;13.540;2023-05-20T14:35:27;19.30;99.90
14739;DHT22;7461;52.440;13.540;2023-05-20T14:37:54;19.40;99.90
14739;DHT22;7461;52.440;13.540;2023-05-20T14:40:21;19.50;99.90
14739;DHT22;7461;52.440;13.540;2023-05-20T14:42:50;19.60;99.90
14739;DHT22;7461;52.440;13.540;2023-05-20T14:45:18;19.60;99.90
14739;DHT22;7461;52.440;13.540;2023-05-20T14:47:45;19.60;99.90
14739;DHT22;7461;52.440;13.540;2023-05-20T14:50:12;19.60;99.90
14739;DHT22;7461;52.440;13.540;2023-05-20T14:52:39;19.50;99.90
14739;DHT22;7461;52.440;13.540;2023-05-20T14:55:06;19.50;99.90
14739;DHT22;7461;52.440;13.540;2023-05-20T14:57:33;19.60;99.90
14739;DHT22;7461;52.440;13.540;2023-05-20T15:00:02;19.60;99.90
14739;DHT22;7461;52.440;13.540;2023-05-20T15:02:30;19.60;99.90
14739;DHT22;7461;52.440;13.540;2023-05-20T15:04:57;19.60;99.90
14739;DHT22;7461;52.440;13.540;2023-05-20T15:07:24;19.70;99.90
14739;DHT22;7461;52.440;13.540;2023-05-20T15:09:51;19.70;99.90
14739;DHT22;7461;52.440;13.540;2023-05-20T15:12:18;19.70;99.90
14739;DHT22;7461;52.440;13.540;2023-05-20T15:14:45;19.70;99.90
14739;DHT22;7461;52.440;13.540;2023-05-20T15:17:13;19.80;99.90
14739;DHT22;7461;52.440;13.540;2023-05-20T15:19:40;19.70;99.90
14739;DHT22;7461;52.440;13.540;2023-05-20T15:22:07;19.70;99.90
14739;DHT22;7461;52.440;13.540;2023-05-20T15:24:34;19.70;99.90
14739;DHT22;7461;52.440;13.540;2023-05-20T15:27:01;19.80;99.90
14739;DHT22;7461;52.440;13.540;2023-05-20T15:29:28;19.80;99.90
14739;DHT22;7461;52.440;13.540;2023-05-20T15:31:55;19.70;99.90
14739;DHT22;7461;52.440;13.540;2023-05-20T15:34:23;19.80;99.90